sensor_id;sensor_type;location;lat;lon;timestamp;P1;durP1;ratioP1;P2;durP2;ratioP2
67889;SDS011;54685;52.082;5.426;2022-07-06T00:00:58;5.35;;;1.48;;
67889;SDS011;54685;52.082;5.426;2022-07-06T00:03:25;2.53;;;1.00;;
67889;SDS011;54685;52.082;5.426;2022-07-06T00:05:52;3.75;;;1.20;;
67889;SDS011;54685;52.082;5.426;2022-07-06T00:08:22;5.30;;;1.40;;
67889;SDS011;54685;52.082;5.426;2022-07-06T00:10:51;3.30;;;1.52;;
67889;SDS011;54685;52.082;5.426;2022-07-06T00:13:18;2.75;;;1.23;;
67889;SDS011;54685;52.082;5.426;2022-07-06T00:15:44;2.58;;;1.25;;
67889;SDS011;54685;52.082;5.426;2022-07-06T00:18:11;3.25;;;1.50;;
67889;SDS011;54685;52.082;5.426;2022-07-06T00:20:38;6.97;;;1.48;;
67889;SDS011;54685;52.082;5.426;2022-07-06T00:23:05;3.13;;;1.40;;
67889;SDS011;54685;52.082;5.426;2022-07-06T00:25:32;1.88;;;1.05;;
67889;SDS011;54685;52.082;5.426;2022-07-06T00:27:59;6.75;;;1.65;;
67889;SDS011;54685;52.082;5.426;2022-07-06T00:30:25;4.40;;;1.50;;
67889;SDS011;54685;52.082;5.426;2022-07-06T00:32:52;2.85;;;1.13;;
67889;SDS011;54685;52.082;5.426;2022-07-06T00:35:19;3.63;;;1.17;;
67889;SDS011;54685;52.082;5.426;2022-07-06T00:37:48;4.38;;;1.55;;
67889;SDS011;54685;52.082;5.426;2022-07-06T00:40:15;2.85;;;1.10;;
67889;SDS011;54685;52.082;5.426;2022-07-06T00:42:44;2.60;;;1.10;;
67889;SDS011;54685;52.082;5.426;2022-07-06T00:45:12;2.55;;;1.27;;
67889;SDS011;54685;52.082;5.426;2022-07-06T00:47:40;2.60;;;1.20;;
67889;SDS011;54685;52.082;5.426;2022-07-06T00:50:09;5.35;;;1.55;;
67889;SDS011;54685;52.082;5.426;2022-07-06T00:52:45;2.88;;;1.10;;
67889;SDS011;54685;52.082;5.426;2022-07-06T00:55:13;5.95;;;1.30;;
67889;SDS011;54685;52.082;5.426;2022-07-06T00:57:41;2.80;;;1.30;;
67889;SDS011;54685;52.082;5.426;2022-07-06T01:00:12;5.15;;;1.45;;
67889;SDS011;54685;52.082;5.426;2022-07-06T01:02:40;6.65;;;1.42;;
67889;SDS011;54685;52.082;5.426;2022-07-06T01:05:09;4.65;;;1.20;;
67889;SDS011;54685;52.082;5.426;2022-07-06T01:07:37;4.28;;;1.40;;
67889;SDS011;54685;52.082;5.426;2022-07-06T01:10:06;3.03;;;1.10;;
67889;SDS011;54685;52.082;5.426;2022-07-06T01:12:40;2.92;;;1.13;;
67889;SDS011;54685;52.082;5.426;2022-07-06T01:15:10;3.95;;;1.40;;
67889;SDS011;54685;52.082;5.426;2022-07-06T01:17:39;4.28;;;1.38;;
67889;SDS011;54685;52.082;5.426;2022-07-06T01:20:08;3.63;;;1.25;;
67889;SDS011;54685;52.082;5.426;2022-07-06T01:22:41;3.47;;;1.30;;
67889;SDS011;54685;52.082;5.426;2022-07-06T01:25:09;4.28;;;1.30;;
67889;SDS011;54685;52.082;5.426;2022-07-06T01:27:37;6.22;;;1.30;;
67889;SDS011;54685;52.082;5.426;2022-07-06T01:30:06;2.83;;;1.40;;
67889;SDS011;54685;52.082;5.426;2022-07-06T01:32:38;3.08;;;1.17;;
67889;SDS011;54685;52.082;5.426;2022-07-06T01:35:05;5.65;;;1.52;;
67889;SDS011;54685;52.082;5.426;2022-07-06T01:37:33;5.72;;;1.33;;
67889;SDS011;54685;52.082;5.426;2022-07-06T01:40:00;6.30;;;1.88;;
67889;SDS011;54685;52.082;5.426;2022-07-06T01:42:29;2.55;;;1.05;;
67889;SDS011;54685;52.082;5.426;2022-07-06T01:44:56;5.40;;;1.42;;
67889;SDS011;54685;52.082;5.426;2022-07-06T01:47:24;3.72;;;1.13;;
67889;SDS011;54685;52.082;5.426;2022-07-06T01:49:51;3.92;;;1.10;;
67889;SDS011;54685;52.082;5.426;2022-07-06T01:52:19;4.47;;;1.42;;
67889;SDS011;54685;52.082;5.426;2022-07-06T01:54:49;4.18;;;1.23;;
67889;SDS011;54685;52.082;5.426;2022-07-06T01:57:15;2.92;;;1.20;;
67889;SDS011;54685;52.082;5.426;2022-07-06T01:59:42;2.00;;;1.13;;
67889;SDS011;54685;52.082;5.426;2022-07-06T02:02:12;2.75;;;1.27;;
67889;SDS011;54685;52.082;5.426;2022-07-06T02:04:39;4.28;;;1.55;;
67889;SDS011;54685;52.082;5.426;2022-07-06T02:07:06;1.75;;;1.13;;
67889;SDS011;54685;52.082;5.426;2022-07-06T02:09:33;7.05;;;1.77;;
67889;SDS011;54685;52.082;5.426;2022-07-06T02:12:00;5.50;;;1.58;;
67889;SDS011;54685;52.082;5.426;2022-07-06T02:14:28;2.38;;;1.30;;
67889;SDS011;54685;52.082;5.426;2022-07-06T02:16:55;5.60;;;1.60;;
67889;SDS011;54685;52.082;5.426;2022-07-06T02:19:21;3.33;;;1.50;;
67889;SDS011;54685;52.082;5.426;2022-07-06T02:21:48;3.95;;;1.30;;
67889;SDS011;54685;52.082;5.426;2022-07-06T02:24:15;5.53;;;1.20;;
67889;SDS011;54685;52.082;5.426;2022-07-06T02:26:42;7.55;;;1.35;;
67889;SDS011;54685;52.082;5.426;2022-07-06T02:29:09;2.75;;;1.23;;
67889;SDS011;54685;52.082;5.426;2022-07-06T02:31:37;3.33;;;1.10;;
67889;SDS011;54685;52.082;5.426;2022-07-06T02:34:05;2.58;;;1.15;;
67889;SDS011;54685;52.082;5.426;2022-07-06T02:36:32;2.65;;;1.10;;
67889;SDS011;54685;52.082;5.426;2022-07-06T02:38:59;2.38;;;1.10;;
67889;SDS011;54685;52.082;5.426;2022-07-06T02:41:26;4.57;;;1.50;;
67889;SDS011;54685;52.082;5.426;2022-07-06T02:43:58;3.35;;;1.00;;
67889;SDS011;54685;52.082;5.426;2022-07-06T02:46:25;3.90;;;1.20;;
67889;SDS011;54685;52.082;5.426;2022-07-06T02:48:52;6.18;;;1.40;;
67889;SDS011;54685;52.082;5.426;2022-07-06T02:51:19;4.22;;;1.45;;
67889;SDS011;54685;52.082;5.426;2022-07-06T02:53:46;5.05;;;1.35;;
67889;SDS011;54685;52.082;5.426;2022-07-06T02:56:13;1.77;;;1.00;;
67889;SDS011;54685;52.082;5.426;2022-07-06T02:58:40;1.75;;;1.13;;
67889;SDS011;54685;52.082;5.426;2022-07-06T03:01:07;2.92;;;1.10;;
67889;SDS011;54685;52.082;5.426;2022-07-06T03:03:34;2.78;;;1.05;;
67889;SDS011;54685;52.082;5.426;2022-07-06T03:06:02;3.22;;;0.88;;
67889;SDS011;54685;52.082;5.426;2022-07-06T03:08:31;3.97;;;1.10;;
67889;SDS011;54685;52.082;5.426;2022-07-06T03:11:00;1.63;;;1.08;;
67889;SDS011;54685;52.082;5.426;2022-07-06T03:13:28;5.30;;;1.38;;
67889;SDS011;54685;52.082;5.426;2022-07-06T03:15:55;2.85;;;1.02;;
67889;SDS011;54685;52.082;5.426;2022-07-06T03:18:22;3.60;;;0.95;;
67889;SDS011;54685;52.082;5.426;2022-07-06T03:20:50;2.75;;;1.15;;
67889;SDS011;54685;52.082;5.426;2022-07-06T03:23:18;2.70;;;0.98;;
67889;SDS011;54685;52.082;5.426;2022-07-06T03:25:46;6.80;;;1.30;;
67889;SDS011;54685;52.082;5.426;2022-07-06T03:28:14;3.42;;;1.10;;
67889;SDS011;54685;52.082;5.426;2022-07-06T03:30:41;4.55;;;1.17;;
67889;SDS011;54685;52.082;5.426;2022-07-06T03:33:08;3.58;;;1.10;;
67889;SDS011;54685;52.082;5.426;2022-07-06T03:35:35;3.97;;;1.00;;
67889;SDS011;54685;52.082;5.426;2022-07-06T03:38:04;3.15;;;1.00;;
67889;SDS011;54685;52.082;5.426;2022-07-06T03:40:31;3.00;;;0.93;;
67889;SDS011;54685;52.082;5.426;2022-07-06T03:42:59;4.97;;;1.20;;
67889;SDS011;54685;52.082;5.426;2022-07-06T03:45:32;3.65;;;0.93;;
67889;SDS011;54685;52.082;5.426;2022-07-06T03:47:59;2.60;;;0.90;;
67889;SDS011;54685;52.082;5.426;2022-07-06T03:50:28;3.63;;;0.95;;
67889;SDS011;54685;52.082;5.426;2022-07-06T03:52:56;2.35;;;0.70;;
67889;SDS011;54685;52.082;5.426;2022-07-06T03:55:27;5.28;;;1.10;;
67889;SDS011;54685;52.082;5.426;2022-07-06T03:57:58;4.15;;;1.20;;
67889;SDS011;54685;52.082;5.426;2022-07-06T04:00:32;2.10;;;0.80;;
67889;SDS011;54685;52.082;5.426;2022-07-06T04:03:04;2.60;;;0.67;;
67889;SDS011;54685;52.082;5.426;2022-07-06T04:05:39;4.78;;;1.05;;
67889;SDS011;54685;52.082;5.426;2022-07-06T04:08:07;4.10;;;1.00;;
67889;SDS011;54685;52.082;5.426;2022-07-06T04:10:40;6.15;;;1.60;;
67889;SDS011;54685;52.082;5.426;2022-07-06T04:13:06;2.92;;;1.00;;
67889;SDS011;54685;52.082;5.426;2022-07-06T04:15:34;3.22;;;1.35;;
67889;SDS011;54685;52.082;5.426;2022-07-06T04:18:01;6.15;;;1.17;;
67889;SDS011;54685;52.082;5.426;2022-07-06T04:20:37;5.07;;;1.00;;
67889;SDS011;54685;52.082;5.426;2022-07-06T04:23:04;2.40;;;1.00;;
67889;SDS011;54685;52.082;5.426;2022-07-06T04:25:31;3.40;;;0.80;;
67889;SDS011;54685;52.082;5.426;2022-07-06T04:28:01;2.08;;;0.75;;
67889;SDS011;54685;52.082;5.426;2022-07-06T04:30:30;4.45;;;1.30;;
67889;SDS011;54685;52.082;5.426;2022-07-06T04:32:57;3.92;;;0.90;;
67889;SDS011;54685;52.082;5.426;2022-07-06T04:35:26;2.55;;;0.80;;
67889;SDS011;54685;52.082;5.426;2022-07-06T04:37:56;1.48;;;0.80;;
67889;SDS011;54685;52.082;5.426;2022-07-06T04:40:24;5.22;;;0.90;;
67889;SDS011;54685;52.082;5.426;2022-07-06T04:42:55;5.47;;;1.17;;
67889;SDS011;54685;52.082;5.426;2022-07-06T04:45:24;1.38;;;0.80;;
67889;SDS011;54685;52.082;5.426;2022-07-06T04:47:51;3.08;;;0.82;;
67889;SDS011;54685;52.082;5.426;2022-07-06T04:50:18;3.72;;;0.95;;
67889;SDS011;54685;52.082;5.426;2022-07-06T04:52:45;2.60;;;0.80;;
67889;SDS011;54685;52.082;5.426;2022-07-06T04:55:12;5.85;;;1.10;;
67889;SDS011;54685;52.082;5.426;2022-07-06T04:57:46;2.92;;;1.20;;
67889;SDS011;54685;52.082;5.426;2022-07-06T05:00:15;5.60;;;1.10;;
67889;SDS011;54685;52.082;5.426;2022-07-06T05:02:42;3.80;;;1.00;;
67889;SDS011;54685;52.082;5.426;2022-07-06T05:05:09;4.18;;;1.17;;
67889;SDS011;54685;52.082;5.426;2022-07-06T05:07:37;3.22;;;1.10;;
67889;SDS011;54685;52.082;5.426;2022-07-06T05:10:08;2.22;;;0.90;;
67889;SDS011;54685;52.082;5.426;2022-07-06T05:12:40;4.22;;;0.93;;
67889;SDS011;54685;52.082;5.426;2022-07-06T05:15:07;4.97;;;1.25;;
67889;SDS011;54685;52.082;5.426;2022-07-06T05:17:35;2.72;;;1.00;;
67889;SDS011;54685;52.082;5.426;2022-07-06T05:20:04;2.15;;;1.13;;
67889;SDS011;54685;52.082;5.426;2022-07-06T05:22:34;3.88;;;0.68;;
67889;SDS011;54685;52.082;5.426;2022-07-06T05:25:07;5.00;;;1.20;;
67889;SDS011;54685;52.082;5.426;2022-07-06T05:27:34;3.67;;;1.10;;
67889;SDS011;54685;52.082;5.426;2022-07-06T05:30:01;5.10;;;1.10;;
67889;SDS011;54685;52.082;5.426;2022-07-06T05:32:29;2.92;;;0.95;;
67889;SDS011;54685;52.082;5.426;2022-07-06T05:34:57;3.97;;;1.40;;
67889;SDS011;54685;52.082;5.426;2022-07-06T05:37:44;2.83;;;0.80;;
67889;SDS011;54685;52.082;5.426;2022-07-06T05:40:11;1.30;;;0.73;;
67889;SDS011;54685;52.082;5.426;2022-07-06T05:42:41;3.60;;;0.90;;
67889;SDS011;54685;52.082;5.426;2022-07-06T05:45:08;2.00;;;0.73;;
67889;SDS011;54685;52.082;5.426;2022-07-06T05:47:41;3.28;;;0.80;;
67889;SDS011;54685;52.082;5.426;2022-07-06T05:50:28;2.83;;;0.70;;
67889;SDS011;54685;52.082;5.426;2022-07-06T05:52:55;8.45;;;0.90;;
67889;SDS011;54685;52.082;5.426;2022-07-06T05:55:38;2.17;;;0.90;;
67889;SDS011;54685;52.082;5.426;2022-07-06T05:58:07;3.35;;;0.82;;
67889;SDS011;54685;52.082;5.426;2022-07-06T06:00:35;3.88;;;0.80;;
67889;SDS011;54685;52.082;5.426;2022-07-06T06:03:14;1.95;;;0.77;;
67889;SDS011;54685;52.082;5.426;2022-07-06T06:05:41;5.53;;;0.98;;
67889;SDS011;54685;52.082;5.426;2022-07-06T06:08:09;6.53;;;0.93;;
67889;SDS011;54685;52.082;5.426;2022-07-06T06:10:36;2.22;;;0.90;;
67889;SDS011;54685;52.082;5.426;2022-07-06T06:13:07;3.22;;;0.77;;
67889;SDS011;54685;52.082;5.426;2022-07-06T06:15:34;5.82;;;0.90;;
67889;SDS011;54685;52.082;5.426;2022-07-06T06:18:03;3.03;;;0.98;;
67889;SDS011;54685;52.082;5.426;2022-07-06T06:20:30;3.47;;;0.80;;
67889;SDS011;54685;52.082;5.426;2022-07-06T06:22:58;3.72;;;1.00;;
67889;SDS011;54685;52.082;5.426;2022-07-06T06:28:01;5.50;;;0.98;;
67889;SDS011;54685;52.082;5.426;2022-07-06T06:30:29;3.72;;;0.77;;
67889;SDS011;54685;52.082;5.426;2022-07-06T06:35:32;3.95;;;0.73;;
67889;SDS011;54685;52.082;5.426;2022-07-06T06:37:59;2.90;;;0.70;;
67889;SDS011;54685;52.082;5.426;2022-07-06T06:40:26;3.97;;;0.88;;
67889;SDS011;54685;52.082;5.426;2022-07-06T06:42:55;4.30;;;0.93;;
67889;SDS011;54685;52.082;5.426;2022-07-06T06:45:22;1.27;;;0.70;;
67889;SDS011;54685;52.082;5.426;2022-07-06T06:47:49;6.80;;;0.77;;
67889;SDS011;54685;52.082;5.426;2022-07-06T06:50:19;3.88;;;0.80;;
67889;SDS011;54685;52.082;5.426;2022-07-06T06:52:46;5.45;;;0.70;;
67889;SDS011;54685;52.082;5.426;2022-07-06T06:55:12;5.32;;;1.23;;
67889;SDS011;54685;52.082;5.426;2022-07-06T06:57:39;8.70;;;0.93;;
67889;SDS011;54685;52.082;5.426;2022-07-06T07:00:06;6.72;;;0.70;;
67889;SDS011;54685;52.082;5.426;2022-07-06T07:02:34;5.82;;;0.93;;
67889;SDS011;54685;52.082;5.426;2022-07-06T07:05:01;9.48;;;1.08;;
67889;SDS011;54685;52.082;5.426;2022-07-06T07:07:29;4.18;;;0.50;;
67889;SDS011;54685;52.082;5.426;2022-07-06T07:09:55;3.42;;;0.73;;
67889;SDS011;54685;52.082;5.426;2022-07-06T07:12:22;3.70;;;0.60;;
67889;SDS011;54685;52.082;5.426;2022-07-06T07:14:49;3.50;;;0.70;;
67889;SDS011;54685;52.082;5.426;2022-07-06T07:17:16;2.45;;;0.68;;
67889;SDS011;54685;52.082;5.426;2022-07-06T07:19:42;2.70;;;0.65;;
67889;SDS011;54685;52.082;5.426;2022-07-06T07:22:09;3.70;;;0.70;;
67889;SDS011;54685;52.082;5.426;2022-07-06T07:24:36;2.13;;;0.68;;
67889;SDS011;54685;52.082;5.426;2022-07-06T07:27:03;4.70;;;0.73;;
67889;SDS011;54685;52.082;5.426;2022-07-06T07:29:31;3.13;;;0.60;;
67889;SDS011;54685;52.082;5.426;2022-07-06T07:31:58;3.13;;;0.47;;
67889;SDS011;54685;52.082;5.426;2022-07-06T07:34:25;2.55;;;0.63;;
67889;SDS011;54685;52.082;5.426;2022-07-06T07:36:51;2.97;;;0.80;;
67889;SDS011;54685;52.082;5.426;2022-07-06T07:39:18;4.10;;;0.73;;
67889;SDS011;54685;52.082;5.426;2022-07-06T07:41:45;5.93;;;0.88;;
67889;SDS011;54685;52.082;5.426;2022-07-06T07:44:12;1.70;;;0.60;;
67889;SDS011;54685;52.082;5.426;2022-07-06T07:46:39;2.15;;;0.52;;
67889;SDS011;54685;52.082;5.426;2022-07-06T07:49:09;3.58;;;0.82;;
67889;SDS011;54685;52.082;5.426;2022-07-06T07:51:37;3.80;;;0.85;;
67889;SDS011;54685;52.082;5.426;2022-07-06T07:54:04;1.88;;;0.55;;
67889;SDS011;54685;52.082;5.426;2022-07-06T07:56:32;2.95;;;0.70;;
67889;SDS011;54685;52.082;5.426;2022-07-06T07:58:59;4.53;;;0.68;;
67889;SDS011;54685;52.082;5.426;2022-07-06T08:01:29;2.05;;;0.65;;
67889;SDS011;54685;52.082;5.426;2022-07-06T08:03:56;2.45;;;0.75;;
67889;SDS011;54685;52.082;5.426;2022-07-06T08:06:26;3.55;;;0.47;;
67889;SDS011;54685;52.082;5.426;2022-07-06T08:08:56;5.78;;;0.98;;
67889;SDS011;54685;52.082;5.426;2022-07-06T08:11:23;1.17;;;0.47;;
67889;SDS011;54685;52.082;5.426;2022-07-06T08:13:50;2.63;;;0.55;;
67889;SDS011;54685;52.082;5.426;2022-07-06T08:16:16;3.20;;;0.60;;
67889;SDS011;54685;52.082;5.426;2022-07-06T08:18:43;6.10;;;0.85;;
67889;SDS011;54685;52.082;5.426;2022-07-06T08:21:10;3.13;;;0.70;;
67889;SDS011;54685;52.082;5.426;2022-07-06T08:23:53;4.05;;;0.80;;
67889;SDS011;54685;52.082;5.426;2022-07-06T08:26:21;4.30;;;0.90;;
67889;SDS011;54685;52.082;5.426;2022-07-06T08:28:49;1.77;;;0.80;;
67889;SDS011;54685;52.082;5.426;2022-07-06T08:31:16;2.80;;;0.57;;
67889;SDS011;54685;52.082;5.426;2022-07-06T08:34:05;4.90;;;0.82;;
67889;SDS011;54685;52.082;5.426;2022-07-06T08:36:32;2.85;;;0.88;;
67889;SDS011;54685;52.082;5.426;2022-07-06T08:38:59;1.58;;;0.63;;
67889;SDS011;54685;52.082;5.426;2022-07-06T08:41:26;4.65;;;0.73;;
67889;SDS011;54685;52.082;5.426;2022-07-06T08:43:55;4.40;;;0.57;;
67889;SDS011;54685;52.082;5.426;2022-07-06T08:46:22;1.77;;;0.63;;
67889;SDS011;54685;52.082;5.426;2022-07-06T08:48:49;6.07;;;0.55;;
67889;SDS011;54685;52.082;5.426;2022-07-06T08:51:18;6.70;;;0.70;;
67889;SDS011;54685;52.082;5.426;2022-07-06T08:53:51;1.58;;;0.50;;
67889;SDS011;54685;52.082;5.426;2022-07-06T08:56:20;2.72;;;0.65;;
67889;SDS011;54685;52.082;5.426;2022-07-06T08:58:50;4.45;;;0.68;;
67889;SDS011;54685;52.082;5.426;2022-07-06T09:01:16;2.15;;;0.47;;
67889;SDS011;54685;52.082;5.426;2022-07-06T09:03:45;2.38;;;0.68;;
67889;SDS011;54685;52.082;5.426;2022-07-06T09:06:16;5.68;;;0.77;;
67889;SDS011;54685;52.082;5.426;2022-07-06T09:08:46;1.60;;;0.60;;
67889;SDS011;54685;52.082;5.426;2022-07-06T09:11:15;2.88;;;0.68;;
67889;SDS011;54685;52.082;5.426;2022-07-06T09:13:42;3.00;;;0.55;;
67889;SDS011;54685;52.082;5.426;2022-07-06T09:16:12;1.27;;;0.52;;
67889;SDS011;54685;52.082;5.426;2022-07-06T09:19:00;5.90;;;1.10;;
67889;SDS011;54685;52.082;5.426;2022-07-06T09:21:29;4.25;;;0.57;;
67889;SDS011;54685;52.082;5.426;2022-07-06T09:23:59;2.47;;;0.80;;
67889;SDS011;54685;52.082;5.426;2022-07-06T09:26:28;3.83;;;0.70;;
67889;SDS011;54685;52.082;5.426;2022-07-06T09:28:55;2.67;;;0.82;;
67889;SDS011;54685;52.082;5.426;2022-07-06T09:31:23;3.25;;;0.80;;
67889;SDS011;54685;52.082;5.426;2022-07-06T09:33:53;2.30;;;0.55;;
67889;SDS011;54685;52.082;5.426;2022-07-06T09:41:50;1.35;;;0.60;;
67889;SDS011;54685;52.082;5.426;2022-07-06T09:44:25;2.90;;;0.60;;
67889;SDS011;54685;52.082;5.426;2022-07-06T09:47:00;3.60;;;0.85;;
67889;SDS011;54685;52.082;5.426;2022-07-06T09:49:28;2.00;;;0.52;;
67889;SDS011;54685;52.082;5.426;2022-07-06T09:51:56;6.70;;;0.93;;
67889;SDS011;54685;52.082;5.426;2022-07-06T09:54:28;5.15;;;0.88;;
67889;SDS011;54685;52.082;5.426;2022-07-06T09:56:56;4.65;;;0.60;;
67889;SDS011;54685;52.082;5.426;2022-07-06T09:59:23;10.30;;;1.08;;
67889;SDS011;54685;52.082;5.426;2022-07-06T10:01:59;4.97;;;1.27;;
67889;SDS011;54685;52.082;5.426;2022-07-06T10:04:27;6.65;;;2.20;;
67889;SDS011;54685;52.082;5.426;2022-07-06T10:06:56;16.10;;;7.40;;
67889;SDS011;54685;52.082;5.426;2022-07-06T10:09:24;19.98;;;10.02;;
67889;SDS011;54685;52.082;5.426;2022-07-06T10:11:57;39.15;;;17.50;;
67889;SDS011;54685;52.082;5.426;2022-07-06T10:14:27;8.65;;;3.78;;
67889;SDS011;54685;52.082;5.426;2022-07-06T10:17:03;3.90;;;1.38;;
67889;SDS011;54685;52.082;5.426;2022-07-06T10:19:31;7.10;;;1.23;;
67889;SDS011;54685;52.082;5.426;2022-07-06T10:21:59;2.58;;;0.85;;
67889;SDS011;54685;52.082;5.426;2022-07-06T10:24:28;4.07;;;0.70;;
67889;SDS011;54685;52.082;5.426;2022-07-06T10:26:56;1.55;;;0.65;;
67889;SDS011;54685;52.082;5.426;2022-07-06T10:29:24;4.75;;;0.80;;
67889;SDS011;54685;52.082;5.426;2022-07-06T10:31:54;3.85;;;0.47;;
67889;SDS011;54685;52.082;5.426;2022-07-06T10:34:21;3.20;;;0.80;;
67889;SDS011;54685;52.082;5.426;2022-07-06T10:36:49;11.52;;;6.22;;
67889;SDS011;54685;52.082;5.426;2022-07-06T10:39:20;7.20;;;4.00;;
67889;SDS011;54685;52.082;5.426;2022-07-06T10:53:12;9.70;;;1.73;;
67889;SDS011;54685;52.082;5.426;2022-07-06T10:55:43;1.08;;;0.50;;
67889;SDS011;54685;52.082;5.426;2022-07-06T10:58:12;2.03;;;0.60;;
67889;SDS011;54685;52.082;5.426;2022-07-06T11:00:53;2.90;;;0.57;;
67889;SDS011;54685;52.082;5.426;2022-07-06T11:03:43;5.72;;;0.82;;
67889;SDS011;54685;52.082;5.426;2022-07-06T11:06:15;5.45;;;0.60;;
67889;SDS011;54685;52.082;5.426;2022-07-06T11:08:45;1.27;;;0.47;;
67889;SDS011;54685;52.082;5.426;2022-07-06T11:14:06;1.17;;;0.40;;
67889;SDS011;54685;52.082;5.426;2022-07-06T11:21:55;1.00;;;0.52;;
67889;SDS011;54685;52.082;5.426;2022-07-06T11:24:29;1.23;;;0.50;;
67889;SDS011;54685;52.082;5.426;2022-07-06T11:26:57;1.85;;;0.60;;
67889;SDS011;54685;52.082;5.426;2022-07-06T11:29:26;2.22;;;0.75;;
67889;SDS011;54685;52.082;5.426;2022-07-06T11:31:57;1.60;;;0.63;;
67889;SDS011;54685;52.082;5.426;2022-07-06T11:34:27;3.70;;;0.60;;
67889;SDS011;54685;52.082;5.426;2022-07-06T11:36:56;1.02;;;0.50;;
67889;SDS011;54685;52.082;5.426;2022-07-06T11:39:27;0.80;;;0.43;;
67889;SDS011;54685;52.082;5.426;2022-07-06T11:41:58;2.53;;;0.65;;
67889;SDS011;54685;52.082;5.426;2022-07-06T11:44:32;5.68;;;0.73;;
67889;SDS011;54685;52.082;5.426;2022-07-06T11:47:00;3.03;;;0.60;;
67889;SDS011;54685;52.082;5.426;2022-07-06T11:49:30;3.20;;;0.50;;
67889;SDS011;54685;52.082;5.426;2022-07-06T11:51:57;2.80;;;0.70;;
67889;SDS011;54685;52.082;5.426;2022-07-06T11:54:25;10.43;;;1.35;;
67889;SDS011;54685;52.082;5.426;2022-07-06T11:56:56;3.90;;;0.80;;
67889;SDS011;54685;52.082;5.426;2022-07-06T11:59:28;1.02;;;0.38;;
67889;SDS011;54685;52.082;5.426;2022-07-06T12:02:06;1.67;;;0.60;;
67889;SDS011;54685;52.082;5.426;2022-07-06T12:04:35;3.20;;;0.38;;
67889;SDS011;54685;52.082;5.426;2022-07-06T12:07:05;3.25;;;0.75;;
67889;SDS011;54685;52.082;5.426;2022-07-06T12:09:36;4.50;;;0.82;;
67889;SDS011;54685;52.082;5.426;2022-07-06T12:12:04;2.08;;;0.50;;
67889;SDS011;54685;52.082;5.426;2022-07-06T12:14:32;1.50;;;0.55;;
67889;SDS011;54685;52.082;5.426;2022-07-06T12:17:05;3.33;;;0.50;;
67889;SDS011;54685;52.082;5.426;2022-07-06T12:19:34;2.75;;;0.60;;
67889;SDS011;54685;52.082;5.426;2022-07-06T12:22:01;3.88;;;0.50;;
67889;SDS011;54685;52.082;5.426;2022-07-06T12:24:30;1.42;;;0.52;;
67889;SDS011;54685;52.082;5.426;2022-07-06T12:27:09;3.10;;;0.70;;
67889;SDS011;54685;52.082;5.426;2022-07-06T12:29:37;0.82;;;0.40;;
67889;SDS011;54685;52.082;5.426;2022-07-06T12:32:28;2.33;;;0.50;;
67889;SDS011;54685;52.082;5.426;2022-07-06T12:35:07;1.85;;;0.50;;
67889;SDS011;54685;52.082;5.426;2022-07-06T12:37:35;2.60;;;0.50;;
67889;SDS011;54685;52.082;5.426;2022-07-06T12:40:13;0.75;;;0.50;;
67889;SDS011;54685;52.082;5.426;2022-07-06T12:42:47;1.27;;;0.60;;
67889;SDS011;54685;52.082;5.426;2022-07-06T12:45:14;2.15;;;0.90;;
67889;SDS011;54685;52.082;5.426;2022-07-06T12:47:41;4.45;;;0.88;;
67889;SDS011;54685;52.082;5.426;2022-07-06T12:50:34;1.17;;;0.50;;
67889;SDS011;54685;52.082;5.426;2022-07-06T12:53:03;2.65;;;0.50;;
67889;SDS011;54685;52.082;5.426;2022-07-06T12:55:31;2.88;;;0.90;;
67889;SDS011;54685;52.082;5.426;2022-07-06T12:57:58;3.40;;;0.70;;
67889;SDS011;54685;52.082;5.426;2022-07-06T13:00:25;1.38;;;0.77;;
67889;SDS011;54685;52.082;5.426;2022-07-06T13:02:53;2.97;;;0.70;;
67889;SDS011;54685;52.082;5.426;2022-07-06T13:05:36;3.47;;;0.82;;
67889;SDS011;54685;52.082;5.426;2022-07-06T13:08:05;2.83;;;0.68;;
67889;SDS011;54685;52.082;5.426;2022-07-06T13:10:32;3.10;;;0.50;;
67889;SDS011;54685;52.082;5.426;2022-07-06T13:13:01;1.17;;;0.57;;
67889;SDS011;54685;52.082;5.426;2022-07-06T13:15:28;1.63;;;0.70;;
67889;SDS011;54685;52.082;5.426;2022-07-06T13:17:55;1.52;;;0.60;;
67889;SDS011;54685;52.082;5.426;2022-07-06T13:20:22;2.25;;;0.70;;
67889;SDS011;54685;52.082;5.426;2022-07-06T13:22:49;2.20;;;0.60;;
67889;SDS011;54685;52.082;5.426;2022-07-06T13:25:17;2.08;;;0.70;;
67889;SDS011;54685;52.082;5.426;2022-07-06T13:27:43;5.30;;;0.70;;
67889;SDS011;54685;52.082;5.426;2022-07-06T13:30:11;3.17;;;0.60;;
67889;SDS011;54685;52.082;5.426;2022-07-06T13:32:38;1.35;;;0.60;;
67889;SDS011;54685;52.082;5.426;2022-07-06T13:35:05;1.70;;;0.52;;
67889;SDS011;54685;52.082;5.426;2022-07-06T13:37:32;1.45;;;0.50;;
67889;SDS011;54685;52.082;5.426;2022-07-06T13:39:59;0.88;;;0.40;;
67889;SDS011;54685;52.082;5.426;2022-07-06T13:42:29;2.88;;;0.80;;
67889;SDS011;54685;52.082;5.426;2022-07-06T13:44:56;6.97;;;0.82;;
67889;SDS011;54685;52.082;5.426;2022-07-06T13:47:23;2.92;;;0.70;;
67889;SDS011;54685;52.082;5.426;2022-07-06T13:49:50;2.22;;;0.68;;
67889;SDS011;54685;52.082;5.426;2022-07-06T13:52:17;3.00;;;0.75;;
67889;SDS011;54685;52.082;5.426;2022-07-06T13:54:44;1.00;;;0.40;;
67889;SDS011;54685;52.082;5.426;2022-07-06T13:57:11;6.88;;;0.93;;
67889;SDS011;54685;52.082;5.426;2022-07-06T13:59:38;1.25;;;0.70;;
67889;SDS011;54685;52.082;5.426;2022-07-06T14:02:05;2.08;;;0.70;;
67889;SDS011;54685;52.082;5.426;2022-07-06T14:04:32;1.85;;;0.70;;
67889;SDS011;54685;52.082;5.426;2022-07-06T14:06:58;2.15;;;0.75;;
67889;SDS011;54685;52.082;5.426;2022-07-06T14:09:27;2.35;;;0.70;;
67889;SDS011;54685;52.082;5.426;2022-07-06T14:11:54;1.50;;;0.63;;
67889;SDS011;54685;52.082;5.426;2022-07-06T14:14:21;3.38;;;0.80;;
67889;SDS011;54685;52.082;5.426;2022-07-06T14:16:50;3.42;;;0.70;;
67889;SDS011;54685;52.082;5.426;2022-07-06T14:19:17;3.13;;;0.80;;
67889;SDS011;54685;52.082;5.426;2022-07-06T14:21:47;3.00;;;0.85;;
67889;SDS011;54685;52.082;5.426;2022-07-06T14:24:17;1.90;;;0.82;;
67889;SDS011;54685;52.082;5.426;2022-07-06T14:26:53;2.47;;;0.80;;
67889;SDS011;54685;52.082;5.426;2022-07-06T14:29:20;3.38;;;1.17;;
67889;SDS011;54685;52.082;5.426;2022-07-06T14:31:46;3.75;;;0.85;;
67889;SDS011;54685;52.082;5.426;2022-07-06T14:34:13;3.10;;;1.05;;
67889;SDS011;54685;52.082;5.426;2022-07-06T14:36:40;3.88;;;0.90;;
67889;SDS011;54685;52.082;5.426;2022-07-06T14:39:10;3.63;;;0.80;;
67889;SDS011;54685;52.082;5.426;2022-07-06T14:41:38;2.30;;;0.98;;
67889;SDS011;54685;52.082;5.426;2022-07-06T14:44:05;3.20;;;1.33;;
67889;SDS011;54685;52.082;5.426;2022-07-06T14:46:32;2.50;;;1.00;;
67889;SDS011;54685;52.082;5.426;2022-07-06T14:49:00;2.83;;;1.00;;
67889;SDS011;54685;52.082;5.426;2022-07-06T14:51:27;3.85;;;1.10;;
67889;SDS011;54685;52.082;5.426;2022-07-06T14:53:54;3.58;;;0.82;;
67889;SDS011;54685;52.082;5.426;2022-07-06T14:56:21;3.58;;;0.95;;
67889;SDS011;54685;52.082;5.426;2022-07-06T14:58:48;4.00;;;0.98;;
67889;SDS011;54685;52.082;5.426;2022-07-06T15:01:35;2.42;;;1.20;;
67889;SDS011;54685;52.082;5.426;2022-07-06T15:04:02;4.15;;;1.20;;
67889;SDS011;54685;52.082;5.426;2022-07-06T15:06:31;1.42;;;0.90;;
67889;SDS011;54685;52.082;5.426;2022-07-06T15:09:18;4.03;;;1.10;;
67889;SDS011;54685;52.082;5.426;2022-07-06T15:11:45;2.95;;;1.00;;
67889;SDS011;54685;52.082;5.426;2022-07-06T15:14:13;4.40;;;1.40;;
67889;SDS011;54685;52.082;5.426;2022-07-06T15:16:42;6.35;;;1.30;;
67889;SDS011;54685;52.082;5.426;2022-07-06T15:19:10;5.28;;;1.63;;
67889;SDS011;54685;52.082;5.426;2022-07-06T15:21:37;2.70;;;1.10;;
67889;SDS011;54685;52.082;5.426;2022-07-06T15:24:04;3.28;;;1.20;;
67889;SDS011;54685;52.082;5.426;2022-07-06T15:26:31;1.30;;;0.85;;
67889;SDS011;54685;52.082;5.426;2022-07-06T15:28:58;2.33;;;0.90;;